Airfield :
LOGIN :

Register | Disclaimer

   EN    FR    IT 

 










Legend :    VFR   Marginal VFR   IFR   Intensive IFR   Very Intensive IFR
Visi :
Ceiling :
>= 8 km
>= 3000ft
5 to 8 km
1000 to 3000 ft
1500m to 5 km
500 to 1000 ft
800 to 1500m
200 to 500 ft
< 800m
< 200 ft
Symbols :   Thunderstorms  Fog  Heavy snow  Heavy precipitations  Wind > 20 kt
SIGMETs :     Misc.  Thunderstorms  Icing  Turbulence  Mountain Waves  Volcanic Ashes






- Airport Elevation : 7 ft
- IATA code : XHE


LFTH - Hyeres

CURRENT METAR :
  • 092330Z AUTO 02002KT CAVOK 21/14 Q1014 NOSIG

EXPIRED METARs :
  • 092300Z AUTO 04002KT CAVOK 21/14 Q1014 NOSIG
  • 092230Z AUTO 00000KT CAVOK 21/14 Q1013 NOSIG
  • 092200Z AUTO 00000KT CAVOK 23/13 Q1014 NOSIG
  • 092130Z AUTO 00000KT CAVOK 23/14 Q1014 NOSIG
  • 092100Z AUTO 03003KT CAVOK 23/17 Q1014 NOSIG

TAF TAF LFTH
Valid from the 09 at 21:00 until the 10 at 21:00 UTC


092000Z 0921/1021 24005KT CAVOK



MET'MAP, your aeronautical weather chart ! - Copyright ORBIFLY December 2007 - Disclaimer

ORBIFLY MET'MAP TEAM :

Programming & Development : Alexandra Zaïnal
Concept & original design : Baudouin d'Aumeries
Assistance for programming : Marc-Olivier Méhu
Technical & hardware support : Manuel Goepfert

Contact : metmap@orbifly.com




SOURCES & CREDITS :

   NOAA